Time;durP1;ratioP1;P1;durP2;ratioP2;P2;SDS_P1;SDS_P2;PMS_P1;PMS_P2;Temp;Humidity;BMP_temperature;BMP_pressure;BME280_temperature;BME280_humidity;BME280_pressure;Samples;Min_cycle;Max_cycle;Signal;HPM_P1;HPM_P2
2023/08/10 00:02:11;;;;;;;1.40;1.00;;;;;;;;;;5072455;28;20040;-82
2023/08/10 00:04:37;;;;;;;2.03;1.08;;;;;;;;;;5073758;28;20036;-82
2023/08/10 00:07:02;;;;;;;1.67;1.10;;;;;;;;;;5073421;28;20024;-82
2023/08/10 00:09:28;;;;;;;1.27;1.17;;;;;;;;;;5073718;28;20038;-81
2023/08/10 00:11:53;;;;;;;2.65;1.20;;;;;;;;;;5073778;28;20375;-82
2023/08/10 00:14:18;;;;;;;1.20;1.05;;;;;;;;;;5073276;28;20024;-82
2023/08/10 00:16:44;;;;;;;1.42;1.05;;;;;;;;;;5071966;28;20034;-82
2023/08/10 00:19:09;;;;;;;0.98;0.90;;;;;;;;;;5073279;28;20028;-82
2023/08/10 00:21:35;;;;;;;2.85;1.10;;;;;;;;;;5071991;28;20036;-82
2023/08/10 00:24:01;;;;;;;1.65;1.00;;;;;;;;;;5073539;28;20032;-82
2023/08/10 00:26:26;;;;;;;1.38;1.10;;;;;;;;;;5073477;28;20031;-82
2023/08/10 00:28:52;;;;;;;1.30;1.10;;;;;;;;;;5073112;28;20043;-82
2023/08/10 00:31:17;;;;;;;1.55;1.10;;;;;;;;;;5073434;28;20036;-81
2023/08/10 00:33:43;;;;;;;2.08;0.93;;;;;;;;;;5072846;28;20049;-81
2023/08/10 00:36:08;;;;;;;1.50;1.10;;;;;;;;;;5073356;28;20035;-81
2023/08/10 00:38:35;;;;;;;1.88;1.17;;;;;;;;;;5071892;28;20052;-81
2023/08/10 00:41:00;;;;;;;2.50;1.48;;;;;;;;;;5071903;28;20028;-81
2023/08/10 00:43:26;;;;;;;1.35;1.05;;;;;;;;;;5072117;28;20050;-81
2023/08/10 00:45:52;;;;;;;2.08;1.20;;;;;;;;;;5072097;28;20029;-81
2023/08/10 00:48:17;;;;;;;3.03;1.45;;;;;;;;;;5071829;28;20024;-81
2023/08/10 00:50:43;;;;;;;2.25;1.33;;;;;;;;;;5073449;28;20029;-81
2023/08/10 00:53:08;;;;;;;2.38;1.10;;;;;;;;;;5072842;28;20061;-81
2023/08/10 00:55:34;;;;;;;1.20;0.95;;;;;;;;;;5072871;28;20073;-81
2023/08/10 00:57:59;;;;;;;1.10;1.00;;;;;;;;;;5071590;28;20036;-82
2023/08/10 01:00:26;;;;;;;1.17;0.95;;;;;;;;;;5074907;28;20128;-81
2023/08/10 01:02:51;;;;;;;0.90;0.90;;;;;;;;;;5076807;28;20055;-81
2023/08/10 01:05:17;;;;;;;1.90;1.30;;;;;;;;;;5075625;28;20490;-81
2023/08/10 01:08:23;;;;;;;1.92;1.30;;;;;;;;;;5076982;28;20048;-81
2023/08/10 01:11:30;;;;;;;1.52;1.20;;;;;;;;;;5075582;28;20020;-81
2023/08/10 01:14:10;;;;;;;1.95;1.10;;;;;;;;;;5074855;28;20032;-81
2023/08/10 01:16:39;;;;;;;0.98;0.95;;;;;;;;;;5058469;28;20036;-81
2023/08/10 01:19:07;;;;;;;1.10;1.00;;;;;;;;;;5075533;28;20085;-81
2023/08/10 01:21:42;;;;;;;1.58;1.10;;;;;;;;;;5075500;28;20107;-81
2023/08/10 01:24:18;;;;;;;1.65;1.13;;;;;;;;;;5076627;28;20020;-81
2023/08/10 01:26:43;;;;;;;1.10;1.00;;;;;;;;;;5076413;28;20050;-81
2023/08/10 01:29:09;;;;;;;2.28;1.10;;;;;;;;;;5074976;28;20032;-81
2023/08/10 01:31:34;;;;;;;1.60;1.10;;;;;;;;;;5075307;28;20105;-82
2023/08/10 01:34:00;;;;;;;2.78;1.13;;;;;;;;;;5075975;28;20513;-82
2023/08/10 01:36:25;;;;;;;1.10;1.00;;;;;;;;;;5074990;28;20036;-81
2023/08/10 01:38:51;;;;;;;1.13;0.90;;;;;;;;;;5076063;28;20036;-82
2023/08/10 01:41:16;;;;;;;1.35;1.02;;;;;;;;;;5075117;28;20039;-82
2023/08/10 01:43:41;;;;;;;2.28;1.10;;;;;;;;;;5074751;28;20553;-82
2023/08/10 01:46:07;;;;;;;2.10;1.25;;;;;;;;;;5076783;28;20032;-81
2023/08/10 01:48:36;;;;;;;2.60;1.30;;;;;;;;;;5075971;28;20057;-81
2023/08/10 01:51:03;;;;;;;1.15;0.95;;;;;;;;;;5076160;28;20020;-82
2023/08/10 01:53:30;;;;;;;1.77;1.05;;;;;;;;;;5074970;28;20024;-81
2023/08/10 01:55:56;;;;;;;1.48;1.00;;;;;;;;;;5074484;28;20528;-81
2023/08/10 01:58:22;;;;;;;3.08;1.20;;;;;;;;;;5074890;28;20032;-81
2023/08/10 02:00:47;;;;;;;1.10;0.95;;;;;;;;;;5075960;28;20503;-82
2023/08/10 02:03:13;;;;;;;1.15;1.05;;;;;;;;;;5074456;28;20085;-81
2023/08/10 02:05:38;;;;;;;1.77;1.10;;;;;;;;;;5074761;28;20024;-81
2023/08/10 02:08:04;;;;;;;1.85;1.10;;;;;;;;;;5075879;28;20450;-81
2023/08/10 02:10:29;;;;;;;1.10;1.00;;;;;;;;;;5075477;28;20032;-81
2023/08/10 02:12:55;;;;;;;1.10;1.00;;;;;;;;;;5074387;28;20108;-82
2023/08/10 02:15:20;;;;;;;1.50;1.10;;;;;;;;;;5074162;28;20024;-81
2023/08/10 02:17:46;;;;;;;2.03;1.00;;;;;;;;;;5074142;28;20394;-81
2023/08/10 02:20:14;;;;;;;3.13;1.33;;;;;;;;;;5075491;28;20463;-82
2023/08/10 02:22:48;;;;;;;2.67;1.10;;;;;;;;;;5075383;28;20035;-81
2023/08/10 02:25:14;;;;;;;;;;;;;;;;;;5057668;28;20077;-81
2023/08/10 02:27:40;;;;;;;2.40;1.27;;;;;;;;;;5108058;28;19946;-81
2023/08/10 02:30:06;;;;;;;1.08;0.90;;;;;;;;;;5074112;28;20029;-81
2023/08/10 02:32:32;;;;;;;1.02;0.90;;;;;;;;;;5074121;28;20044;-81
2023/08/10 02:34:57;;;;;;;1.75;1.10;;;;;;;;;;5073729;28;20041;-81
2023/08/10 02:37:23;;;;;;;3.10;1.10;;;;;;;;;;5075584;28;20032;-82
2023/08/10 02:39:48;;;;;;;1.48;1.23;;;;;;;;;;5057290;28;20035;-82
2023/08/10 02:42:14;;;;;;;2.22;1.20;;;;;;;;;;5075224;28;20051;-81
2023/08/10 02:44:39;;;;;;;3.08;1.10;;;;;;;;;;5073734;28;20096;-81
2023/08/10 02:47:05;;;;;;;1.40;1.10;;;;;;;;;;5073639;28;20032;-81
2023/08/10 02:49:30;;;;;;;2.63;0.77;;;;;;;;;;5056868;28;20376;-81
2023/08/10 02:51:56;;;;;;;3.13;1.10;;;;;;;;;;5073493;28;20048;-81
2023/08/10 02:54:22;;;;;;;1.15;1.05;;;;;;;;;;5056925;28;20032;-81
2023/08/10 02:56:47;;;;;;;1.48;1.13;;;;;;;;;;5074700;28;20035;-82
2023/08/10 02:59:12;;;;;;;1.30;0.95;;;;;;;;;;5074584;28;20386;-81
2023/08/10 03:01:38;;;;;;;2.00;1.00;;;;;;;;;;5074897;28;20033;-82
2023/08/10 03:04:05;;;;;;;2.03;1.08;;;;;;;;;;5073378;28;20360;-81
2023/08/10 03:06:31;;;;;;;1.83;1.10;;;;;;;;;;5056748;28;20094;-82
2023/08/10 03:08:56;;;;;;;1.30;1.02;;;;;;;;;;5074487;28;20040;-81
2023/08/10 03:11:22;;;;;;;1.17;0.95;;;;;;;;;;5074436;28;20029;-81
2023/08/10 03:13:47;;;;;;;1.60;1.17;;;;;;;;;;5074564;28;20459;-81
2023/08/10 03:16:13;;;;;;;1.80;1.20;;;;;;;;;;5072969;28;20119;-81
2023/08/10 03:18:38;;;;;;;1.05;0.95;;;;;;;;;;5074551;28;20025;-81
2023/08/10 03:21:04;;;;;;;1.27;0.95;;;;;;;;;;5056369;28;20451;-82
2023/08/10 03:23:29;;;;;;;1.52;0.90;;;;;;;;;;5073920;28;20027;-81
2023/08/10 03:25:54;;;;;;;1.63;1.27;;;;;;;;;;5073195;28;20159;-82
2023/08/10 03:28:20;;;;;;;1.33;1.10;;;;;;;;;;5072994;28;20098;-82
2023/08/10 03:30:46;;;;;;;1.40;1.30;;;;;;;;;;5072677;28;20502;-81
2023/08/10 03:33:11;;;;;;;1.35;1.10;;;;;;;;;;5073022;28;20039;-82
2023/08/10 03:35:37;;;;;;;1.20;0.90;;;;;;;;;;5073759;28;20403;-82
2023/08/10 03:38:02;;;;;;;1.48;1.10;;;;;;;;;;5072549;28;20036;-81
2023/08/10 03:40:27;;;;;;;1.52;1.05;;;;;;;;;;5073798;28;20120;-81
2023/08/10 03:42:53;;;;;;;2.20;1.02;;;;;;;;;;5072605;28;20037;-81
2023/08/10 03:45:18;;;;;;;1.58;1.20;;;;;;;;;;5074019;28;20020;-82
2023/08/10 03:47:43;;;;;;;2.08;1.10;;;;;;;;;;5072493;28;20391;-81
2023/08/10 03:50:10;;;;;;;1.50;1.10;;;;;;;;;;5072423;28;20407;-82
2023/08/10 03:52:35;;;;;;;1.27;0.90;;;;;;;;;;5073651;28;20447;-81
2023/08/10 03:55:01;;;;;;;1.15;1.05;;;;;;;;;;5055714;28;20056;-81
2023/08/10 03:57:27;;;;;;;0.90;0.90;;;;;;;;;;5072725;28;20391;-82
2023/08/10 03:59:52;;;;;;;1.20;1.10;;;;;;;;;;5073501;28;20035;-82
2023/08/10 04:02:18;;;;;;;1.20;1.10;;;;;;;;;;5072349;28;20047;-81
2023/08/10 04:04:43;;;;;;;1.10;1.00;;;;;;;;;;5073530;28;20024;-81
2023/08/10 04:07:09;;;;;;;3.40;1.00;;;;;;;;;;5073837;28;20039;-81
2023/08/10 04:09:34;;;;;;;1.67;1.10;;;;;;;;;;5073798;28;20119;-81
2023/08/10 04:11:59;;;;;;;1.15;1.08;;;;;;;;;;5072532;28;20103;-82
2023/08/10 04:14:25;;;;;;;1.48;1.10;;;;;;;;;;5073397;28;20479;-81
2023/08/10 04:16:51;;;;;;;1.58;1.25;;;;;;;;;;5071954;28;20032;-81
2023/08/10 04:19:17;;;;;;;3.40;0.95;;;;;;;;;;5072344;28;20025;-81
2023/08/10 04:21:44;;;;;;;0.90;0.90;;;;;;;;;;5073154;28;20112;-82
2023/08/10 04:24:09;;;;;;;1.77;1.30;;;;;;;;;;5071930;28;20032;-81
2023/08/10 04:26:36;;;;;;;3.15;1.20;;;;;;;;;;5073285;28;20029;-81
2023/08/10 04:29:02;;;;;;;1.20;0.98;;;;;;;;;;5073134;28;20483;-82
2023/08/10 04:31:28;;;;;;;3.75;1.15;;;;;;;;;;5072101;28;20041;-81
2023/08/10 04:33:53;;;;;;;2.78;1.20;;;;;;;;;;5072286;28;20045;-81
2023/08/10 04:36:18;;;;;;;2.47;1.30;;;;;;;;;;5088452;28;20068;-81
2023/08/10 04:38:44;;;;;;;1.48;1.00;;;;;;;;;;5055094;28;20127;-81
2023/08/10 04:41:09;;;;;;;1.55;1.00;;;;;;;;;;5073069;28;20035;-81
2023/08/10 04:43:35;;;;;;;1.77;1.20;;;;;;;;;;5073308;28;20047;-81
2023/08/10 04:46:00;;;;;;;3.22;1.38;;;;;;;;;;5071867;28;20395;-82
2023/08/10 04:48:25;;;;;;;2.03;1.25;;;;;;;;;;5073554;28;20028;-81
2023/08/10 04:50:51;;;;;;;1.05;0.90;;;;;;;;;;5072966;28;20083;-81
2023/08/10 04:53:17;;;;;;;1.30;1.20;;;;;;;;;;5071754;28;20090;-81
2023/08/10 04:55:43;;;;;;;0.95;0.95;;;;;;;;;;5071740;28;20153;-81
2023/08/10 04:58:08;;;;;;;0.93;0.85;;;;;;;;;;5073089;28;20043;-82
2023/08/10 05:00:34;;;;;;;2.65;1.00;;;;;;;;;;5071708;28;20425;-81
2023/08/10 05:02:59;;;;;;;2.13;0.90;;;;;;;;;;5055011;28;20040;-81
2023/08/10 05:05:25;;;;;;;1.48;0.75;;;;;;;;;;5073310;28;20099;-81
2023/08/10 05:07:50;;;;;;;1.42;1.00;;;;;;;;;;5072977;28;20111;-82
2023/08/10 05:10:16;;;;;;;1.00;1.00;;;;;;;;;;5073274;28;20112;-82
2023/08/10 05:12:41;;;;;;;1.88;1.13;;;;;;;;;;5073579;28;20089;-81
2023/08/10 05:15:09;;;;;;;3.88;1.10;;;;;;;;;;5073057;28;20074;-81
2023/08/10 05:17:35;;;;;;;1.58;0.90;;;;;;;;;;5073162;28;20108;-82
2023/08/10 05:20:05;;;;;;;1.90;1.10;;;;;;;;;;5072291;28;20437;-82
2023/08/10 05:22:31;;;;;;;1.17;0.93;;;;;;;;;;5072258;28;20039;-81
2023/08/10 05:24:56;;;;;;;1.25;1.00;;;;;;;;;;5072807;28;20029;-81
2023/08/10 05:27:21;;;;;;;1.55;1.10;;;;;;;;;;5072782;28;20028;-82
2023/08/10 05:29:48;;;;;;;1.35;1.25;;;;;;;;;;5072941;28;20086;-81
2023/08/10 05:32:13;;;;;;;1.55;1.10;;;;;;;;;;5071377;28;20547;-81
2023/08/10 05:34:38;;;;;;;1.27;0.98;;;;;;;;;;5072690;28;20139;-81
2023/08/10 05:37:04;;;;;;;1.58;1.08;;;;;;;;;;5073519;28;20107;-81
2023/08/10 05:39:29;;;;;;;2.28;1.00;;;;;;;;;;5054725;28;20029;-81
2023/08/10 05:41:55;;;;;;;3.28;1.17;;;;;;;;;;5071803;28;20097;-81
2023/08/10 05:44:20;;;;;;;1.10;1.00;;;;;;;;;;5071349;28;20063;-81
2023/08/10 05:46:46;;;;;;;1.27;1.00;;;;;;;;;;5075242;28;20025;-81
2023/08/10 05:49:11;;;;;;;1.65;0.90;;;;;;;;;;5076316;28;20113;-81
2023/08/10 05:51:37;;;;;;;1.15;1.00;;;;;;;;;;5074733;28;20074;-81
2023/08/10 05:54:02;;;;;;;0.93;0.93;;;;;;;;;;5074909;28;20056;-81
2023/08/10 05:56:28;;;;;;;0.90;0.90;;;;;;;;;;5058095;28;20039;-81
2023/08/10 05:58:53;;;;;;;5.00;1.25;;;;;;;;;;5074623;28;20082;-81
2023/08/10 06:01:19;;;;;;;2.03;1.20;;;;;;;;;;5057786;28;20032;-81
2023/08/10 06:03:44;;;;;;;2.88;1.13;;;;;;;;;;5076148;28;20457;-81
2023/08/10 06:06:10;;;;;;;3.17;1.85;;;;;;;;;;5076055;28;20024;-81
2023/08/10 06:08:35;;;;;;;1.48;1.10;;;;;;;;;;5074472;28;20039;-81
2023/08/10 06:11:01;;;;;;;2.40;1.10;;;;;;;;;;5057760;28;20527;-81
2023/08/10 06:13:27;;;;;;;1.40;1.23;;;;;;;;;;5057797;28;20036;-81
2023/08/10 06:15:52;;;;;;;2.10;1.20;;;;;;;;;;5075672;28;20390;-81
2023/08/10 06:18:18;;;;;;;3.50;1.20;;;;;;;;;;5075572;28;20037;-81
2023/08/10 06:20:44;;;;;;;1.55;1.10;;;;;;;;;;5074323;28;20158;-81
2023/08/10 06:23:10;;;;;;;1.58;1.00;;;;;;;;;;5057662;28;20526;-81
2023/08/10 06:25:36;;;;;;;1.58;1.10;;;;;;;;;;5057522;28;20163;-81
2023/08/10 06:28:02;;;;;;;4.53;1.20;;;;;;;;;;5075529;28;20040;-81
2023/08/10 06:30:27;;;;;;;3.78;1.30;;;;;;;;;;5074092;28;20036;-81
2023/08/10 06:32:53;;;;;;;2.00;1.05;;;;;;;;;;5073973;28;20033;-81
2023/08/10 06:35:19;;;;;;;1.80;1.10;;;;;;;;;;5073898;28;20057;-81
2023/08/10 06:37:45;;;;;;;1.17;1.00;;;;;;;;;;5074615;28;20054;-81
2023/08/10 06:40:11;;;;;;;1.92;1.10;;;;;;;;;;5075168;28;20082;-81
2023/08/10 06:42:37;;;;;;;1.77;1.20;;;;;;;;;;5075649;28;20032;-81
2023/08/10 06:45:03;;;;;;;1.10;1.00;;;;;;;;;;5073952;28;20085;-81
2023/08/10 06:47:29;;;;;;;2.92;1.05;;;;;;;;;;5075303;28;20032;-81
2023/08/10 06:49:55;;;;;;;1.30;1.00;;;;;;;;;;5073799;28;20040;-80
2023/08/10 06:52:20;;;;;;;2.47;1.10;;;;;;;;;;5074854;28;20036;-81
2023/08/10 06:54:46;;;;;;;1.90;1.20;;;;;;;;;;5075291;28;20074;-81
2023/08/10 06:57:11;;;;;;;1.75;1.17;;;;;;;;;;5074183;28;20105;-81
2023/08/10 06:59:36;;;;;;;1.30;1.20;;;;;;;;;;5074096;28;20028;-81
2023/08/10 07:02:02;;;;;;;1.77;1.23;;;;;;;;;;5073503;28;20122;-81
2023/08/10 07:04:27;;;;;;;1.65;1.20;;;;;;;;;;5074612;28;20162;-80
2023/08/10 07:06:54;;;;;;;2.22;1.10;;;;;;;;;;5073394;28;20039;-81
2023/08/10 07:09:19;;;;;;;2.30;1.50;;;;;;;;;;5074841;28;20029;-81
2023/08/10 07:11:44;;;;;;;1.60;1.27;;;;;;;;;;5073697;28;20368;-81
2023/08/10 07:14:10;;;;;;;1.48;1.00;;;;;;;;;;5073135;28;20021;-81
2023/08/10 07:16:35;;;;;;;3.20;1.10;;;;;;;;;;5073205;28;20040;-81
2023/08/10 07:19:01;;;;;;;4.20;1.30;;;;;;;;;;5056488;28;20020;-81
2023/08/10 07:21:26;;;;;;;3.05;1.20;;;;;;;;;;5074233;28;20032;-81
2023/08/10 07:23:51;;;;;;;1.52;1.00;;;;;;;;;;5074258;28;20029;-81
2023/08/10 07:26:17;;;;;;;2.08;1.10;;;;;;;;;;5072898;28;20074;-81
2023/08/10 07:28:43;;;;;;;2.90;1.48;;;;;;;;;;5074093;28;20032;-81
2023/08/10 07:31:09;;;;;;;2.28;1.05;;;;;;;;;;5056199;28;20032;-82
2023/08/10 07:33:34;;;;;;;1.67;1.17;;;;;;;;;;5071636;28;20098;-83
2023/08/10 07:36:00;;;;;;;1.02;0.95;;;;;;;;;;5072968;28;20053;-82
2023/08/10 07:38:25;;;;;;;2.90;1.10;;;;;;;;;;5072056;28;20040;-83
2023/08/10 07:40:51;;;;;;;1.42;1.08;;;;;;;;;;5055364;28;20033;-81
2023/08/10 07:43:17;;;;;;;2.10;1.02;;;;;;;;;;5073251;28;20388;-82
2023/08/10 07:45:42;;;;;;;1.35;1.10;;;;;;;;;;5055508;28;20506;-81
2023/08/10 07:48:08;;;;;;;1.75;1.08;;;;;;;;;;5071816;28;20032;-82
2023/08/10 07:50:33;;;;;;;1.92;1.13;;;;;;;;;;5071933;28;20024;-82
2023/08/10 07:52:59;;;;;;;1.83;1.10;;;;;;;;;;5055539;28;20035;-82
2023/08/10 07:55:25;;;;;;;0.88;0.82;;;;;;;;;;5072898;28;20029;-82
2023/08/10 07:57:50;;;;;;;3.42;1.30;;;;;;;;;;5038512;28;20028;-81
2023/08/10 08:00:16;;;;;;;3.20;1.33;;;;;;;;;;5071355;28;20031;-83
2023/08/10 08:02:42;;;;;;;1.17;0.98;;;;;;;;;;5072744;28;20036;-81
2023/08/10 08:05:07;;;;;;;1.38;1.00;;;;;;;;;;5073219;28;20016;-82
2023/08/10 08:07:33;;;;;;;2.78;0.90;;;;;;;;;;5071875;28;20429;-82
2023/08/10 08:09:59;;;;;;;1.30;1.20;;;;;;;;;;5071462;28;20115;-83
2023/08/10 08:12:26;;;;;;;3.70;1.00;;;;;;;;;;5071550;28;20031;-81
2023/08/10 08:14:52;;;;;;;1.45;0.80;;;;;;;;;;5071544;28;20028;-82
2023/08/10 08:17:18;;;;;;;1.05;0.88;;;;;;;;;;5072542;28;20476;-82
2023/08/10 08:19:44;;;;;;;1.45;1.00;;;;;;;;;;5072405;28;20055;-83
2023/08/10 08:22:11;;;;;;;0.93;0.90;;;;;;;;;;5072459;28;20104;-79
2023/08/10 08:24:36;;;;;;;1.77;1.13;;;;;;;;;;5072617;28;20116;-79
2023/08/10 08:27:01;;;;;;;0.98;0.90;;;;;;;;;;5072978;28;20028;-82
2023/08/10 08:29:27;;;;;;;1.02;0.90;;;;;;;;;;5054952;28;20039;-82
2023/08/10 08:31:52;;;;;;;1.10;1.00;;;;;;;;;;5071539;28;20115;-81
2023/08/10 08:34:18;;;;;;;1.23;1.00;;;;;;;;;;5071419;28;20391;-81
2023/08/10 08:36:44;;;;;;;1.13;1.00;;;;;;;;;;5072438;28;20076;-83
2023/08/10 08:39:10;;;;;;;1.77;1.10;;;;;;;;;;5071361;28;20107;-82
2023/08/10 08:41:37;;;;;;;2.53;0.82;;;;;;;;;;5054673;28;20645;-82
2023/08/10 08:44:05;;;;;;;3.40;1.00;;;;;;;;;;5055140;28;20048;-82
2023/08/10 08:46:31;;;;;;;2.08;0.90;;;;;;;;;;5073105;28;20028;-82
2023/08/10 08:48:57;;;;;;;1.10;0.80;;;;;;;;;;5071400;28;20495;-82
2023/08/10 08:51:23;;;;;;;1.08;0.82;;;;;;;;;;5071604;28;20033;-82
2023/08/10 08:53:50;;;;;;;1.52;1.10;;;;;;;;;;5072640;28;20028;-81
2023/08/10 08:56:15;;;;;;;1.38;1.00;;;;;;;;;;5054947;28;20027;-81
2023/08/10 08:58:41;;;;;;;2.97;1.05;;;;;;;;;;5054510;28;20119;-81
2023/08/10 09:01:07;;;;;;;1.77;0.98;;;;;;;;;;5068432;28;20705;-82
2023/08/10 09:03:33;;;;;;;2.00;1.08;;;;;;;;;;5071113;28;20395;-82
2023/08/10 09:06:00;;;;;;;2.65;1.20;;;;;;;;;;5090143;28;20028;-82
2023/08/10 09:08:26;;;;;;;2.83;0.90;;;;;;;;;;5092025;28;20031;-82
2023/08/10 09:10:51;;;;;;;1.00;0.90;;;;;;;;;;5092000;28;20509;-82
2023/08/10 09:13:18;;;;;;;1.52;1.10;;;;;;;;;;5074915;28;20027;-81
2023/08/10 09:15:44;;;;;;;1.08;0.80;;;;;;;;;;5091367;28;20020;-82
2023/08/10 09:18:10;;;;;;;1.17;0.90;;;;;;;;;;5093389;28;20483;-82
2023/08/10 09:20:36;;;;;;;1.80;1.08;;;;;;;;;;5092194;28;20036;-82
2023/08/10 09:23:02;;;;;;;2.22;1.10;;;;;;;;;;5078790;28;20467;-82
2023/08/10 09:25:37;;;;;;;1.30;1.00;;;;;;;;;;5095330;28;20024;-82
2023/08/10 09:28:08;;;;;;;1.10;0.88;;;;;;;;;;5095713;28;20020;-82
2023/08/10 09:30:33;;;;;;;2.28;1.00;;;;;;;;;;5081175;28;20040;-82
2023/08/10 09:32:59;;;;;;;3.35;0.80;;;;;;;;;;5075198;28;20025;-82
2023/08/10 09:35:24;;;;;;;1.70;0.70;;;;;;;;;;5054548;28;20052;-81
2023/08/10 09:37:49;;;;;;;1.52;0.98;;;;;;;;;;5063574;28;20033;-82
2023/08/10 09:40:16;;;;;;;1.60;1.00;;;;;;;;;;5075258;28;20099;-81
2023/08/10 09:42:42;;;;;;;1.00;0.93;;;;;;;;;;5074797;28;20036;-81
2023/08/10 09:45:11;;;;;;;1.50;1.05;;;;;;;;;;5058256;28;20494;-82
2023/08/10 09:47:41;;;;;;;2.17;1.05;;;;;;;;;;5058694;28;20047;-81
2023/08/10 09:50:15;;;;;;;2.47;1.10;;;;;;;;;;5074879;28;20475;-82
2023/08/10 09:52:41;;;;;;;4.60;1.20;;;;;;;;;;5074666;28;20032;-81
2023/08/10 09:55:08;;;;;;;3.17;0.93;;;;;;;;;;5074707;28;20029;-81
2023/08/10 09:57:39;;;;;;;2.55;0.82;;;;;;;;;;5076171;28;20387;-82
2023/08/10 10:00:09;;;;;;;1.08;0.80;;;;;;;;;;5079339;28;20428;-81
2023/08/10 10:02:35;;;;;;;2.08;1.40;;;;;;;;;;5061804;28;20074;-82
2023/08/10 10:05:00;;;;;;;1.40;0.80;;;;;;;;;;5075948;28;20471;-81
2023/08/10 10:07:27;;;;;;;0.80;0.80;;;;;;;;;;5075755;28;20024;-82
2023/08/10 10:09:56;;;;;;;0.82;0.80;;;;;;;;;;5074748;28;20016;-81
2023/08/10 10:12:22;;;;;;;0.80;0.80;;;;;;;;;;5075818;28;20028;-82
2023/08/10 10:14:48;;;;;;;1.23;0.80;;;;;;;;;;5075604;28;20391;-82
2023/08/10 10:17:18;;;;;;;3.08;0.98;;;;;;;;;;5075638;28;20025;-81
2023/08/10 10:19:44;;;;;;;0.90;0.90;;;;;;;;;;5074385;28;20398;-82
2023/08/10 10:22:10;;;;;;;1.08;0.93;;;;;;;;;;5057921;28;20450;-81
2023/08/10 10:24:41;;;;;;;1.35;1.02;;;;;;;;;;5074367;28;20020;-83
2023/08/10 10:27:09;;;;;;;1.05;0.90;;;;;;;;;;5074290;28;20021;-82
2023/08/10 10:29:40;;;;;;;0.70;0.70;;;;;;;;;;5064552;28;20023;-82
2023/08/10 10:32:16;;;;;;;1.40;1.00;;;;;;;;;;5094475;28;20035;-82
2023/08/10 10:34:42;;;;;;;1.27;0.90;;;;;;;;;;5074305;28;20041;-82
2023/08/10 10:37:22;;;;;;;1.20;0.90;;;;;;;;;;5057284;28;20043;-82
2023/08/10 10:39:50;;;;;;;0.95;0.90;;;;;;;;;;5073916;28;20024;-81
2023/08/10 10:42:16;;;;;;;2.08;0.80;;;;;;;;;;5073467;28;20025;-81
2023/08/10 10:45:00;;;;;;;0.93;0.80;;;;;;;;;;5094031;28;20028;-81
2023/08/10 10:47:45;;;;;;;;;;;;;;;;;;5095577;28;20056;-82
2023/08/10 10:50:19;;;;;;;1.00;0.90;;;;;;;;;;5070270;28;19908;-81
2023/08/10 10:52:56;;;;;;;;;;;;;;;;;;5073026;28;20104;-82
2023/08/10 10:55:48;;;;;;;2.15;1.63;;;;;;;;;;5074722;28;20337;-82
2023/08/10 10:58:14;;;;;;;1.80;1.55;;;;;;;;;;5074816;28;20082;-82
2023/08/10 11:00:41;;;;;;;2.20;1.70;;;;;;;;;;5089418;28;20040;-81
2023/08/10 11:03:08;;;;;;;1.95;1.67;;;;;;;;;;5088791;28;20062;-81
2023/08/10 11:05:34;;;;;;;2.92;1.77;;;;;;;;;;5053805;28;20028;-81
2023/08/10 11:08:06;;;;;;;2.13;1.50;;;;;;;;;;5073327;28;20028;-80
2023/08/10 11:10:36;;;;;;;6.22;1.73;;;;;;;;;;5073410;28;20349;-81
2023/08/10 11:13:06;;;;;;;2.95;1.85;;;;;;;;;;5073328;28;20479;-81
2023/08/10 11:15:31;;;;;;;3.53;1.63;;;;;;;;;;5059569;28;20027;-81
2023/08/10 11:17:57;;;;;;;2.28;1.50;;;;;;;;;;5094770;28;20102;-80
2023/08/10 11:20:23;;;;;;;2.58;1.60;;;;;;;;;;5093091;28;20111;-80
2023/08/10 11:22:49;;;;;;;4.50;1.73;;;;;;;;;;5127297;27;20478;-80
2023/08/10 11:25:19;;;;;;;5.18;1.88;;;;;;;;;;5075800;28;20461;-80
2023/08/10 11:27:49;;;;;;;4.43;1.80;;;;;;;;;;5093346;28;20082;-80
2023/08/10 11:30:17;;;;;;;2.45;1.60;;;;;;;;;;5093298;28;20031;-81
2023/08/10 11:32:44;;;;;;;3.72;1.70;;;;;;;;;;5093839;28;20386;-81
2023/08/10 11:35:11;;;;;;;2.60;1.70;;;;;;;;;;5093328;28;20048;-81
2023/08/10 11:37:41;;;;;;;1.98;1.60;;;;;;;;;;5093438;28;20024;-81
2023/08/10 11:40:13;;;;;;;2.13;1.48;;;;;;;;;;5092977;28;20386;-81
2023/08/10 11:42:41;;;;;;;1.65;1.50;;;;;;;;;;5093411;28;20057;-79
2023/08/10 11:45:11;;;;;;;2.97;1.90;;;;;;;;;;5092556;28;20093;-80
2023/08/10 11:47:45;;;;;;;3.33;1.70;;;;;;;;;;5093699;28;20024;-81
2023/08/10 11:50:11;;;;;;;;;;;;;;;;;;5093569;28;20494;-79
2023/08/10 11:52:39;;;;;;;2.65;1.80;;;;;;;;;;5109662;28;19908;-81
2023/08/10 11:55:12;;;;;;;1.80;1.60;;;;;;;;;;5075872;28;20174;-81
2023/08/10 11:57:42;;;;;;;5.20;2.30;;;;;;;;;;5076267;28;20035;-81
2023/08/10 12:00:23;;;;;;;2.13;1.63;;;;;;;;;;5092863;28;20046;-82
2023/08/10 12:02:57;;;;;;;1.88;1.58;;;;;;;;;;5093966;28;20059;-83
2023/08/10 12:05:44;;;;;;;3.95;1.63;;;;;;;;;;5094212;28;20024;-83
2023/08/10 12:08:15;;;;;;;3.63;1.70;;;;;;;;;;5093897;28;20515;-80
2023/08/10 12:10:50;;;;;;;2.35;1.77;;;;;;;;;;5093255;28;20043;-81
2023/08/10 12:13:17;;;;;;;3.80;1.80;;;;;;;;;;5075704;28;20020;-82
2023/08/10 12:15:47;;;;;;;3.40;1.67;;;;;;;;;;5093851;28;20092;-82
2023/08/10 12:18:18;;;;;;;2.03;1.55;;;;;;;;;;5076797;28;20051;-80
2023/08/10 12:20:45;;;;;;;3.95;1.50;;;;;;;;;;5076543;28;20031;-81
2023/08/10 12:23:12;;;;;;;4.13;1.58;;;;;;;;;;5079017;28;20380;-82
2023/08/10 12:25:38;;;;;;;4.00;1.70;;;;;;;;;;5075798;28;20035;-82
2023/08/10 12:28:05;;;;;;;1.88;1.35;;;;;;;;;;5076010;28;20028;-81
2023/08/10 12:30:31;;;;;;;1.60;1.45;;;;;;;;;;5093961;28;20055;-82
2023/08/10 12:32:56;;;;;;;2.50;1.52;;;;;;;;;;5092596;28;20471;-82
2023/08/10 12:35:22;;;;;;;2.33;1.40;;;;;;;;;;5093460;28;20056;-81
2023/08/10 12:37:48;;;;;;;4.18;1.30;;;;;;;;;;5059645;28;20391;-78
2023/08/10 12:40:16;;;;;;;2.42;1.65;;;;;;;;;;5075570;28;20055;-80
2023/08/10 12:42:42;;;;;;;3.08;1.42;;;;;;;;;;5094138;28;20055;-80
2023/08/10 12:45:09;;;;;;;1.70;1.48;;;;;;;;;;5093651;28;20073;-79
2023/08/10 12:47:36;;;;;;;1.63;1.35;;;;;;;;;;5092189;28;20433;-81
2023/08/10 12:50:02;;;;;;;2.38;1.30;;;;;;;;;;5075620;28;20052;-82
2023/08/10 12:52:28;;;;;;;3.05;1.48;;;;;;;;;;5075577;28;20020;-83
2023/08/10 12:54:53;;;;;;;3.25;1.65;;;;;;;;;;5092062;28;20028;-84
2023/08/10 12:57:19;;;;;;;2.28;1.30;;;;;;;;;;5096258;28;20536;-82
2023/08/10 12:59:44;;;;;;;1.58;1.35;;;;;;;;;;5097408;28;20050;-83
2023/08/10 13:02:10;;;;;;;1.25;1.15;;;;;;;;;;5096441;28;20493;-84
2023/08/10 13:04:35;;;;;;;1.20;1.10;;;;;;;;;;5098503;28;20036;-83
2023/08/10 13:07:01;;;;;;;2.70;1.52;;;;;;;;;;5096614;28;20037;-84
2023/08/10 13:09:26;;;;;;;2.85;1.58;;;;;;;;;;5096147;28;20024;-83
2023/08/10 13:11:52;;;;;;;3.63;1.48;;;;;;;;;;5096447;28;20039;-83
2023/08/10 13:14:17;;;;;;;3.20;1.30;;;;;;;;;;5079051;28;20028;-83
2023/08/10 13:16:43;;;;;;;1.92;1.20;;;;;;;;;;5096106;28;20024;-83
2023/08/10 13:19:08;;;;;;;2.15;1.50;;;;;;;;;;5097292;28;20027;-84
2023/08/10 13:21:37;;;;;;;3.05;1.42;;;;;;;;;;5096335;28;20020;-83
2023/08/10 13:24:03;;;;;;;2.95;1.40;;;;;;;;;;5095971;28;20390;-83
2023/08/10 13:26:28;;;;;;;1.63;1.45;;;;;;;;;;5095866;28;20031;-83
2023/08/10 13:28:54;;;;;;;2.50;1.27;;;;;;;;;;5096987;28;20024;-83
2023/08/10 13:31:19;;;;;;;1.30;1.20;;;;;;;;;;5096066;28;20382;-83
2023/08/10 13:33:45;;;;;;;1.73;1.35;;;;;;;;;;5078542;28;20040;-80
2023/08/10 13:36:10;;;;;;;1.83;1.60;;;;;;;;;;5095512;28;20044;-82
2023/08/10 13:38:36;;;;;;;2.00;1.45;;;;;;;;;;5095479;28;20394;-80
2023/08/10 13:41:02;;;;;;;2.67;1.60;;;;;;;;;;5096047;28;20049;-83
2023/08/10 13:43:27;;;;;;;2.55;1.40;;;;;;;;;;5095747;28;20119;-82
2023/08/10 13:45:53;;;;;;;1.92;1.20;;;;;;;;;;5095702;28;20031;-80
2023/08/10 13:48:21;;;;;;;4.20;1.42;;;;;;;;;;5095787;28;20112;-81
2023/08/10 13:50:49;;;;;;;3.40;1.40;;;;;;;;;;5096435;28;20107;-80
2023/08/10 13:53:14;;;;;;;1.73;1.17;;;;;;;;;;5096427;28;20024;-80
2023/08/10 13:55:39;;;;;;;2.63;1.50;;;;;;;;;;5096272;28;20028;-82
2023/08/10 13:58:05;;;;;;;1.80;1.40;;;;;;;;;;5096641;28;20024;-79
2023/08/10 14:00:30;;;;;;;3.75;1.38;;;;;;;;;;5077847;28;20036;-79
2023/08/10 14:02:56;;;;;;;2.53;1.40;;;;;;;;;;5072345;28;20058;-79
2023/08/10 14:05:21;;;;;;;3.00;1.40;;;;;;;;;;5074896;28;20029;-79
2023/08/10 14:07:47;;;;;;;1.48;1.20;;;;;;;;;;5091413;28;20043;-79
2023/08/10 14:10:12;;;;;;;2.70;1.50;;;;;;;;;;5075714;28;20037;-79
2023/08/10 14:12:38;;;;;;;1.95;1.08;;;;;;;;;;5075291;28;20486;-79
2023/08/10 14:15:04;;;;;;;1.38;1.20;;;;;;;;;;5074875;28;20029;-79
2023/08/10 14:17:32;;;;;;;2.28;1.38;;;;;;;;;;5091761;28;20487;-79
2023/08/10 14:19:57;;;;;;;2.92;1.20;;;;;;;;;;5074469;28;20099;-78
2023/08/10 14:22:23;;;;;;;1.35;1.10;;;;;;;;;;5079614;28;20048;-79
2023/08/10 14:24:48;;;;;;;1.30;1.10;;;;;;;;;;5059073;28;20024;-79
2023/08/10 14:27:14;;;;;;;1.63;1.23;;;;;;;;;;5076458;28;20475;-79
2023/08/10 14:29:39;;;;;;;1.70;1.20;;;;;;;;;;5059925;28;20069;-79
2023/08/10 14:32:07;;;;;;;1.50;1.40;;;;;;;;;;5072496;28;20043;-79
2023/08/10 14:34:33;;;;;;;1.38;1.13;;;;;;;;;;5082704;28;20036;-79
2023/08/10 14:36:58;;;;;;;1.95;1.20;;;;;;;;;;5081772;28;20037;-79
2023/08/10 14:39:24;;;;;;;1.50;1.30;;;;;;;;;;5076086;28;20025;-79
2023/08/10 14:41:50;;;;;;;1.45;1.20;;;;;;;;;;5077004;28;20119;-79